Flight Track Log - Related Links

Times and Time Zones

All times are in EDT time to prevent confusion due to time zone crossing. See the SWA3206 flight status page for this flight to view local times or setup timezone preferences in your user account.

Time Position Orientation Groundspeed Altitude Reporting Facility
EDT Latitude Longitude Course Direction KTS MPH feet Rate Location/Type
Sun 07:03:27 PM 32.7333 -117.2167 277° West 157 181 1,300  Level Southern California TRACON
Sun 07:03:49 PM 32.7347 -117.2303 277° West 185 213 1,600 1,786 Climbing Los Angeles Center
Sun 07:04:51 PM 32.7250 -117.2981 260° West 201 231 3,800 2,400 Climbing Los Angeles Center
Sun 07:05:54 PM 32.6658 -117.3047 185° South 239 275 6,600 3,120 Climbing Los Angeles Center
Sun 07:06:56 PM 32.6564 -117.2183 97° East 277 319 10,300 3,387 Climbing Los Angeles Center
Sun 07:07:58 PM 32.6492 -117.0947 94° East 312 359 13,600 3,339 Climbing Los Angeles Center
Sun 07:09:00 PM 32.6419 -116.9792 94° East 344 396 17,200 3,339 Climbing Los Angeles Center
Sun 07:10:02 PM 32.6358 -116.8606 93° East 357 411 20,500 2,855 Climbing Los Angeles Center
Sun 07:11:04 PM 32.6317 -116.7394 92° East 365 420 23,100 2,613 Climbing Los Angeles Center
Sun 07:12:06 PM 32.6458 -116.6119 82° East 390 449 25,900 1,887 Climbing Los Angeles Center
Sun 07:13:08 PM 32.6600 -116.4653 83° East 378 435 27,000 532 Climbing Los Angeles Center
Sun 07:14:10 PM 32.6706 -116.3450 84° East 373 429 27,000  Level Los Angeles Center
Sun 07:15:12 PM 32.6833 -116.2258 83° East 371 427 27,000  Level Los Angeles Center
Sun 07:16:15 PM 32.6942 -116.1056 84° East 371 427 27,000  Level Los Angeles Center
Sun 07:17:17 PM 32.7083 -115.9614 83° East 370 426 27,000  Level Los Angeles Center
Sun 07:18:19 PM 32.7192 -115.8403 84° East 370 426 27,000  Level Los Angeles Center
Sun 07:19:21 PM 32.7303 -115.7178 84° East 374 430 27,000  Level Los Angeles Center
Sun 07:20:23 PM 32.7419 -115.5947 84° East 377 434 27,000  Level Los Angeles Center
Sun 07:21:25 PM 32.7506 -115.4725 85° East 374 430 27,000  Level Los Angeles Center
Sun 07:22:27 PM 32.7533 -115.3497 88° East 373 429 27,000  Level Los Angeles Center
Sun 07:23:29 PM 32.7581 -115.2031 88° East 371 427 27,000  Level Los Angeles Center
Sun 07:24:31 PM 32.7614 -115.0814 88° East 369 425 27,000  Level Los Angeles Center
Sun 07:25:33 PM 32.7633 -114.9592 89° East 369 425 27,000  Level Los Angeles Center
Sun 07:26:35 PM 32.7644 -114.8361 89° East 370 426 27,000  Level Los Angeles Center
Sun 07:27:38 PM 32.7694 -114.7153 87° East 366 421 27,000  Level Los Angeles Center
Sun 07:28:40 PM 32.7714 -114.5686 89° East 368 423 27,000  Level Los Angeles Center
Sun 07:29:42 PM 32.7719 -114.4475 90° East 365 420 27,000  Level Los Angeles Center
Sun 07:30:44 PM 32.7736 -114.3275 89° East 362 417 27,000  Level Los Angeles Center
Sun 07:31:46 PM 32.7753 -114.2078 89° East 361 415 27,000 -823 Level Los Angeles Center
Sun 07:32:48 PM 32.7761 -114.0894 89° East 358 412 25,300 -968 Descending Los Angeles Center
Sun 07:33:50 PM 32.7758 -113.9739 90° East 349 402 25,000 -145 Descending Los Angeles Center
Sun 07:34:52 PM 32.7958 -113.8361 80° East 353 406 25,000  Level Los Angeles Center
Sun 07:36:05 PM 32.8144 -113.7097 80° East 352 405 25,000  Level Albuquerque Center
Sun 07:37:06 PM 32.8706 -113.6147 55° Northeast 354 407 25,000  Level Albuquerque Center
Sun 07:38:08 PM 32.9358 -113.5267 49° Northeast 354 407 25,000 -585 Level Albuquerque Center
Sun 07:39:09 PM 33.0014 -113.4383 48° Northeast 355 409 23,800 -1,463 Descending Albuquerque Center
Sun 07:40:11 PM 33.0647 -113.3539 48° Northeast 346 398 22,000 -1,220 Descending Albuquerque Center
Sun 07:41:12 PM 33.1381 -113.2533 49° Northeast 337 388 21,300 -1,377 Descending Albuquerque Center
Sun 07:42:13 PM 33.1967 -113.1728 49° Northeast 326 375 19,200 -2,000 Descending Albuquerque Center
Sun 07:43:15 PM 33.2547 -113.0942 49° Northeast 317 365 17,200 -1,073 Descending Albuquerque Center
Sun 07:44:16 PM 33.2764 -112.9931 76° East 327 376 17,000 -244 Descending Albuquerque Center
Sun 07:45:18 PM 33.2786 -112.8864 89° East 322 371 16,700 -1,024 Descending Albuquerque Center
Sun 07:46:19 PM 33.2808 -112.7831 88° East 316 364 14,900 -878 Descending Albuquerque Center
Sun 07:47:21 PM 33.2825 -112.6803 89° East 312 359 14,900 -488 Level Albuquerque Center
Sun 07:48:22 PM 33.2872 -112.5664 87° East 309 356 13,900 -1,268 Descending Albuquerque Center
Sun 07:49:24 PM 33.2894 -112.4583 89° East 320 368 12,300 -1,415 Descending Albuquerque Center
Sun 07:50:25 PM 33.2919 -112.3536 88° East 320 368 11,000 -976 Descending Albuquerque Center
Sun 07:51:27 PM 33.2978 -112.2586 86° East 302 348 10,300 -829 Descending Albuquerque Center
Sun 07:52:28 PM 33.3050 -112.1678 85° East 284 327 9,300 -787 Descending Albuquerque Center
Sun 07:53:29 PM 33.3142 -112.0775 83° East 278 320 8,700 -1,122 Descending Albuquerque Center
Sun 07:54:31 PM 33.3422 -111.9686 73° East 287 330 7,000 -1,073 Descending Albuquerque Center
Sun 07:55:32 PM 33.3464 -111.8881 86° East 256 295 6,500 -780 Descending Albuquerque Center
Sun 07:56:34 PM 33.3747 -111.8431 53° Northeast 217 250 5,400 -1,268 Descending Albuquerque Center
Sun 07:57:35 PM 33.4139 -111.8658 334° Northwest 203 234 3,900 -1,415 Descending Albuquerque Center
Sun 07:58:37 PM 33.4289 -111.9133 291° West 171 197 2,500 -1,024 Descending Albuquerque Center
Sun 07:59:38 PM 33.4314 -111.9611 274° West 155 178 1,800 -439 Descending Albuquerque Center
Sun 08:00:40 PM 33.4317 -112.0092 270° West 153 176 1,600 -194 Descending Albuquerque Center

Login

Don't have an account? Register now (free) for customized features, flight alerts, and more!